Share

Malcom, IA (50157)

Grinnell Regional (KGGI) Elev 1007 ft | 41.71 °N, 92.73 °W | Change Station

Current weather conditions updated 7 minutes ago

Overcast
Overcast
35 °F
Feels Like 26 °F
N
14
Wind Variable Wind from West
Gusts 20 mph
Sunrise 6:27 AM
Sunset 7:52 PM
Moon Waning Gibbous

Today is forecast to be Cooler than yesterday.

Pressure 30.09 in
Visibility 10.0 miles
Clouds Overcast 1100 ft
Windchill 26 °F
Dew Point 32 °F
Humidity 87%
Rainfall 0.00 in
Snow Depth Not available.
UV 0 out of 16
Pollen 9.60 out of 12
Air Quality Not available.
Flu Activity Sporadic
METAR KGGI 170935Z AUTO 28012G17KT 10SM OVC011 02/00 A3009 RMK AO2 T00171002

More Conditions Fewer Conditions

Pressure 30.09 in
Visibility 10.0 miles
Clouds Overcast 1100 ft
Windchill 26 °F
Dew Point 32 °F
Humidity 87%
Rainfall 0.00 in
Snow Depth Not available.
UV 0 out of 16
Pollen 9.60 out of 12
Air Quality Not available.
Flu Activity Sporadic
METAR KGGI 170935Z AUTO 28012G17KT 10SM OVC011 02/00 A3009 RMK AO2 T00171002

More Conditions Fewer Conditions

10-Day Forecast

Almanac

Astronomy

Apr. 17, 2014 Rise Set
Actual Time 6:27 AM CDT 7:52 PM CDT
Civil Twilight 5:58 AM CDT 8:21 PM CDT
Nautical Twilight 5:23 AM CDT 8:56 PM CDT
Astronomical Twilight 4:46 AM CDT 9:34 PM CDT
Moon 10:40 PM CDT 7:57 AM CDT
Length of Visible Light 14h 23m
Length of Day
13h 25m
Tomorrow will be 2m 38s longer.
Waning Gibbous, 95% of the Moon is Illuminated
Today
Waning Gibbous
Apr 22
Last Quarter
Apr 29
New
May 6
First Quarter
May 14
Full

Today's Extremes

State Highs State Lows

Community

  • Sunset over the Bay
    Sunset over the Bay
  • symphony in blue....
    symphony in blue....
  • Dawn Surprise
    Dawn Surprise
  • Yucca delight
    Yucca delight
  • Sunset inside of the Ocean
    Sunset inside of the Ocean

WunderPhotos

Upload Photos

1,701,899 photos uploaded!

WunderBlogs® & News

Nearby

Snow Depth

Station Depth Elevation
No new snow has been reported.

Coastal Water Temperatures

Place Temperature
No Stations Reporting

Earthquake Activity

City Distance Mag. Time & Date
No recent earthquake activity has been reported nearby.
Minimum magnitude displayed is 2.5.

Nearby Weather Stations

Station Location Temp. Windchill Dew Point Humidity Wind Precip. Elev Updated Type
Grinnell Weather.com, Grinnell, IA 34.6 °F 27 °F 32 °F 89% West  at  9.9 mph 0.00 in / hr 1014 ft 4:42 AM CDT Rapid Fire
Dietze Weather Station, Millersburg, IA 38.7 °F 32 °F 34 °F 82% West  at  9.2 mph 0.00 in / hr 883 ft 4:42 AM CDT Rapid Fire
Oskaloosa, IA 37.4 °F 37 °F 30 °F 76% NW  at  0.0 mph 0.00 in / hr 856 ft 4:41 AM CDT Rapid Fire
MesoWest BELLP1 , Belle Plaine, IA 35 °F 35 °F - - North  at  - 0.00 in / hr 796 ft 3:30 AM CDT MADIS
BankerWeather, Pella, IA 36.3 °F 33 °F 31 °F 82% West  at  4.2 mph - / hr 810 ft 4:27 AM CDT Normal

Show More Stations Show Fewer Stations

What do you think?

We're not finished. Please let us know what you like, what you don't like, and what you are still missing.